sensor_id;sensor_type;location;lat;lon;timestamp;P1;durP1;ratioP1;P2;durP2;ratioP2
9968;SDS011;5025;48.890;9.278;2024-01-15T00:01:32;23.53;;;13.03;;
9968;SDS011;5025;48.890;9.278;2024-01-15T00:03:57;23.40;;;13.00;;
9968;SDS011;5025;48.890;9.278;2024-01-15T00:06:23;22.37;;;13.13;;
9968;SDS011;5025;48.890;9.278;2024-01-15T00:08:49;22.03;;;12.53;;
9968;SDS011;5025;48.890;9.278;2024-01-15T00:11:14;19.97;;;11.60;;
9968;SDS011;5025;48.890;9.278;2024-01-15T00:13:39;19.40;;;12.27;;
9968;SDS011;5025;48.890;9.278;2024-01-15T00:16:04;24.40;;;13.07;;
9968;SDS011;5025;48.890;9.278;2024-01-15T00:18:30;23.33;;;12.97;;
9968;SDS011;5025;48.890;9.278;2024-01-15T00:20:55;27.27;;;13.57;;
9968;SDS011;5025;48.890;9.278;2024-01-15T00:23:21;24.07;;;13.23;;
9968;SDS011;5025;48.890;9.278;2024-01-15T00:25:47;21.37;;;12.20;;
9968;SDS011;5025;48.890;9.278;2024-01-15T00:28:12;24.13;;;12.57;;
9968;SDS011;5025;48.890;9.278;2024-01-15T00:30:37;21.70;;;11.80;;
9968;SDS011;5025;48.890;9.278;2024-01-15T00:33:02;21.37;;;12.10;;
9968;SDS011;5025;48.890;9.278;2024-01-15T00:35:28;21.73;;;12.07;;
9968;SDS011;5025;48.890;9.278;2024-01-15T00:37:53;19.23;;;11.20;;
9968;SDS011;5025;48.890;9.278;2024-01-15T00:40:18;20.17;;;11.67;;
9968;SDS011;5025;48.890;9.278;2024-01-15T00:42:44;20.13;;;11.00;;
9968;SDS011;5025;48.890;9.278;2024-01-15T00:45:09;19.33;;;11.53;;
9968;SDS011;5025;48.890;9.278;2024-01-15T00:47:34;18.37;;;11.00;;
9968;SDS011;5025;48.890;9.278;2024-01-15T00:50:00;21.03;;;11.63;;
9968;SDS011;5025;48.890;9.278;2024-01-15T00:52:25;20.77;;;11.77;;
9968;SDS011;5025;48.890;9.278;2024-01-15T00:54:50;18.87;;;10.57;;
9968;SDS011;5025;48.890;9.278;2024-01-15T00:57:16;18.07;;;10.60;;
9968;SDS011;5025;48.890;9.278;2024-01-15T00:59:41;20.63;;;12.07;;
9968;SDS011;5025;48.890;9.278;2024-01-15T01:02:06;18.47;;;10.60;;
9968;SDS011;5025;48.890;9.278;2024-01-15T01:04:32;17.13;;;9.50;;
9968;SDS011;5025;48.890;9.278;2024-01-15T01:06:57;15.73;;;9.50;;
9968;SDS011;5025;48.890;9.278;2024-01-15T01:09:22;17.97;;;10.07;;
9968;SDS011;5025;48.890;9.278;2024-01-15T01:11:47;14.40;;;9.17;;
9968;SDS011;5025;48.890;9.278;2024-01-15T01:14:13;15.83;;;8.80;;
9968;SDS011;5025;48.890;9.278;2024-01-15T01:16:38;12.83;;;7.80;;
9968;SDS011;5025;48.890;9.278;2024-01-15T01:19:04;16.30;;;9.00;;
9968;SDS011;5025;48.890;9.278;2024-01-15T01:21:31;18.37;;;10.33;;
9968;SDS011;5025;48.890;9.278;2024-01-15T01:23:56;15.73;;;10.03;;
9968;SDS011;5025;48.890;9.278;2024-01-15T01:26:21;14.00;;;8.90;;
9968;SDS011;5025;48.890;9.278;2024-01-15T01:28:46;17.70;;;9.97;;
9968;SDS011;5025;48.890;9.278;2024-01-15T01:31:12;18.00;;;10.53;;
9968;SDS011;5025;48.890;9.278;2024-01-15T01:33:38;18.03;;;10.27;;
9968;SDS011;5025;48.890;9.278;2024-01-15T01:36:08;17.37;;;10.47;;
9968;SDS011;5025;48.890;9.278;2024-01-15T01:38:37;15.13;;;9.17;;
9968;SDS011;5025;48.890;9.278;2024-01-15T01:41:02;15.07;;;9.40;;
9968;SDS011;5025;48.890;9.278;2024-01-15T01:43:28;14.00;;;8.43;;
9968;SDS011;5025;48.890;9.278;2024-01-15T01:45:54;14.53;;;8.80;;
9968;SDS011;5025;48.890;9.278;2024-01-15T01:48:21;14.50;;;8.37;;
9968;SDS011;5025;48.890;9.278;2024-01-15T01:50:47;12.27;;;8.23;;
9968;SDS011;5025;48.890;9.278;2024-01-15T01:53:12;14.73;;;9.13;;
9968;SDS011;5025;48.890;9.278;2024-01-15T01:55:38;14.57;;;8.77;;
9968;SDS011;5025;48.890;9.278;2024-01-15T01:58:04;14.63;;;8.77;;
9968;SDS011;5025;48.890;9.278;2024-01-15T02:00:30;13.60;;;8.80;;
9968;SDS011;5025;48.890;9.278;2024-01-15T02:02:57;15.37;;;9.43;;
9968;SDS011;5025;48.890;9.278;2024-01-15T02:05:22;15.10;;;9.10;;
9968;SDS011;5025;48.890;9.278;2024-01-15T02:07:48;17.03;;;10.33;;
9968;SDS011;5025;48.890;9.278;2024-01-15T02:10:13;15.17;;;9.10;;
9968;SDS011;5025;48.890;9.278;2024-01-15T02:12:38;15.90;;;10.20;;
9968;SDS011;5025;48.890;9.278;2024-01-15T02:15:04;18.67;;;10.57;;
9968;SDS011;5025;48.890;9.278;2024-01-15T02:17:29;16.20;;;10.00;;
9968;SDS011;5025;48.890;9.278;2024-01-15T02:19:55;16.77;;;10.10;;
9968;SDS011;5025;48.890;9.278;2024-01-15T02:22:20;17.40;;;10.43;;
9968;SDS011;5025;48.890;9.278;2024-01-15T02:24:45;16.80;;;10.23;;
9968;SDS011;5025;48.890;9.278;2024-01-15T02:27:10;16.57;;;9.43;;
9968;SDS011;5025;48.890;9.278;2024-01-15T02:29:36;16.60;;;9.17;;
9968;SDS011;5025;48.890;9.278;2024-01-15T02:32:05;16.23;;;10.07;;
9968;SDS011;5025;48.890;9.278;2024-01-15T02:34:31;15.60;;;9.20;;
9968;SDS011;5025;48.890;9.278;2024-01-15T02:36:57;16.40;;;9.40;;
9968;SDS011;5025;48.890;9.278;2024-01-15T02:39:22;14.37;;;9.30;;
9968;SDS011;5025;48.890;9.278;2024-01-15T02:41:48;13.30;;;8.63;;
9968;SDS011;5025;48.890;9.278;2024-01-15T02:44:13;13.93;;;8.77;;
9968;SDS011;5025;48.890;9.278;2024-01-15T02:46:38;16.73;;;9.57;;
9968;SDS011;5025;48.890;9.278;2024-01-15T02:49:03;16.00;;;9.23;;
9968;SDS011;5025;48.890;9.278;2024-01-15T02:51:29;14.23;;;8.70;;
9968;SDS011;5025;48.890;9.278;2024-01-15T02:53:54;16.87;;;9.17;;
9968;SDS011;5025;48.890;9.278;2024-01-15T02:56:19;15.73;;;8.87;;
9968;SDS011;5025;48.890;9.278;2024-01-15T02:58:44;14.23;;;8.30;;
9968;SDS011;5025;48.890;9.278;2024-01-15T03:01:10;14.53;;;8.63;;
9968;SDS011;5025;48.890;9.278;2024-01-15T03:03:35;14.83;;;8.97;;
9968;SDS011;5025;48.890;9.278;2024-01-15T03:06:01;14.77;;;8.80;;
9968;SDS011;5025;48.890;9.278;2024-01-15T03:08:26;13.87;;;8.33;;
9968;SDS011;5025;48.890;9.278;2024-01-15T03:10:52;14.93;;;8.90;;
9968;SDS011;5025;48.890;9.278;2024-01-15T03:13:17;12.90;;;7.63;;
9968;SDS011;5025;48.890;9.278;2024-01-15T03:15:44;13.10;;;8.40;;
9968;SDS011;5025;48.890;9.278;2024-01-15T03:18:09;13.53;;;8.63;;
9968;SDS011;5025;48.890;9.278;2024-01-15T03:20:34;14.83;;;8.67;;
9968;SDS011;5025;48.890;9.278;2024-01-15T03:23:00;14.60;;;8.90;;
9968;SDS011;5025;48.890;9.278;2024-01-15T03:25:25;13.67;;;8.60;;
9968;SDS011;5025;48.890;9.278;2024-01-15T03:27:50;11.57;;;7.93;;
9968;SDS011;5025;48.890;9.278;2024-01-15T03:30:15;12.40;;;7.53;;
9968;SDS011;5025;48.890;9.278;2024-01-15T03:32:40;12.70;;;7.77;;
9968;SDS011;5025;48.890;9.278;2024-01-15T03:35:06;13.73;;;7.87;;
9968;SDS011;5025;48.890;9.278;2024-01-15T03:37:31;12.37;;;7.77;;
9968;SDS011;5025;48.890;9.278;2024-01-15T03:39:56;11.60;;;8.03;;
9968;SDS011;5025;48.890;9.278;2024-01-15T03:42:22;11.20;;;7.37;;
9968;SDS011;5025;48.890;9.278;2024-01-15T03:44:47;12.60;;;7.63;;
9968;SDS011;5025;48.890;9.278;2024-01-15T03:47:12;10.47;;;6.50;;
9968;SDS011;5025;48.890;9.278;2024-01-15T03:49:37;11.77;;;7.90;;
9968;SDS011;5025;48.890;9.278;2024-01-15T03:52:03;12.47;;;7.40;;
9968;SDS011;5025;48.890;9.278;2024-01-15T03:54:28;11.83;;;7.77;;
9968;SDS011;5025;48.890;9.278;2024-01-15T03:56:53;11.03;;;7.40;;
9968;SDS011;5025;48.890;9.278;2024-01-15T03:59:19;9.70;;;7.20;;
9968;SDS011;5025;48.890;9.278;2024-01-15T04:01:50;11.60;;;7.67;;
9968;SDS011;5025;48.890;9.278;2024-01-15T04:04:16;9.87;;;6.83;;
9968;SDS011;5025;48.890;9.278;2024-01-15T04:06:41;11.17;;;7.40;;
9968;SDS011;5025;48.890;9.278;2024-01-15T04:09:07;11.10;;;7.07;;
9968;SDS011;5025;48.890;9.278;2024-01-15T04:11:32;11.27;;;6.80;;
9968;SDS011;5025;48.890;9.278;2024-01-15T04:13:57;9.87;;;6.40;;
9968;SDS011;5025;48.890;9.278;2024-01-15T04:16:22;9.37;;;6.27;;
9968;SDS011;5025;48.890;9.278;2024-01-15T04:18:48;11.37;;;7.30;;
9968;SDS011;5025;48.890;9.278;2024-01-15T04:21:13;11.63;;;7.67;;
9968;SDS011;5025;48.890;9.278;2024-01-15T04:23:38;11.53;;;7.33;;
9968;SDS011;5025;48.890;9.278;2024-01-15T04:26:04;10.57;;;7.83;;
9968;SDS011;5025;48.890;9.278;2024-01-15T04:28:29;12.30;;;8.03;;
9968;SDS011;5025;48.890;9.278;2024-01-15T04:30:54;16.93;;;9.10;;
9968;SDS011;5025;48.890;9.278;2024-01-15T04:33:20;13.07;;;7.90;;
9968;SDS011;5025;48.890;9.278;2024-01-15T04:35:45;12.57;;;7.83;;
9968;SDS011;5025;48.890;9.278;2024-01-15T04:38:10;13.43;;;8.57;;
9968;SDS011;5025;48.890;9.278;2024-01-15T04:40:36;11.37;;;7.27;;
9968;SDS011;5025;48.890;9.278;2024-01-15T04:43:01;12.03;;;7.87;;
9968;SDS011;5025;48.890;9.278;2024-01-15T04:45:26;10.83;;;7.17;;
9968;SDS011;5025;48.890;9.278;2024-01-15T04:47:53;9.43;;;6.53;;
9968;SDS011;5025;48.890;9.278;2024-01-15T04:50:21;9.67;;;6.27;;
9968;SDS011;5025;48.890;9.278;2024-01-15T04:52:46;9.23;;;6.80;;
9968;SDS011;5025;48.890;9.278;2024-01-15T04:55:11;9.33;;;6.23;;
9968;SDS011;5025;48.890;9.278;2024-01-15T04:57:36;9.30;;;6.40;;
9968;SDS011;5025;48.890;9.278;2024-01-15T05:00:02;8.10;;;6.00;;
9968;SDS011;5025;48.890;9.278;2024-01-15T05:02:27;10.77;;;6.47;;
9968;SDS011;5025;48.890;9.278;2024-01-15T05:04:53;9.67;;;6.00;;
9968;SDS011;5025;48.890;9.278;2024-01-15T05:07:18;10.67;;;6.80;;
9968;SDS011;5025;48.890;9.278;2024-01-15T05:09:43;10.03;;;6.73;;
9968;SDS011;5025;48.890;9.278;2024-01-15T05:12:08;7.70;;;6.07;;
9968;SDS011;5025;48.890;9.278;2024-01-15T05:14:34;8.70;;;6.07;;
9968;SDS011;5025;48.890;9.278;2024-01-15T05:16:59;9.37;;;6.27;;
9968;SDS011;5025;48.890;9.278;2024-01-15T05:19:24;10.20;;;6.80;;
9968;SDS011;5025;48.890;9.278;2024-01-15T05:21:50;10.80;;;7.57;;
9968;SDS011;5025;48.890;9.278;2024-01-15T05:24:15;15.73;;;10.43;;
9968;SDS011;5025;48.890;9.278;2024-01-15T05:26:40;13.57;;;9.43;;
9968;SDS011;5025;48.890;9.278;2024-01-15T05:29:05;12.53;;;9.20;;
9968;SDS011;5025;48.890;9.278;2024-01-15T05:31:31;10.87;;;6.97;;
9968;SDS011;5025;48.890;9.278;2024-01-15T05:33:56;15.23;;;9.90;;
9968;SDS011;5025;48.890;9.278;2024-01-15T05:36:21;14.37;;;9.53;;
9968;SDS011;5025;48.890;9.278;2024-01-15T05:38:47;14.27;;;9.37;;
9968;SDS011;5025;48.890;9.278;2024-01-15T05:41:12;11.97;;;9.40;;
9968;SDS011;5025;48.890;9.278;2024-01-15T05:43:38;13.07;;;9.60;;
9968;SDS011;5025;48.890;9.278;2024-01-15T05:46:03;12.57;;;8.37;;
9968;SDS011;5025;48.890;9.278;2024-01-15T05:48:28;11.27;;;6.93;;
9968;SDS011;5025;48.890;9.278;2024-01-15T05:50:54;13.00;;;8.43;;
9968;SDS011;5025;48.890;9.278;2024-01-15T05:53:19;8.67;;;6.20;;
9968;SDS011;5025;48.890;9.278;2024-01-15T05:55:44;10.67;;;6.27;;
9968;SDS011;5025;48.890;9.278;2024-01-15T05:58:09;9.87;;;6.53;;
9968;SDS011;5025;48.890;9.278;2024-01-15T06:00:35;9.17;;;5.90;;
9968;SDS011;5025;48.890;9.278;2024-01-15T06:03:01;13.87;;;6.67;;
9968;SDS011;5025;48.890;9.278;2024-01-15T06:05:26;19.87;;;8.13;;
9968;SDS011;5025;48.890;9.278;2024-01-15T06:07:52;43.27;;;12.67;;
9968;SDS011;5025;48.890;9.278;2024-01-15T06:10:17;18.80;;;7.97;;
9968;SDS011;5025;48.890;9.278;2024-01-15T06:12:43;10.07;;;6.37;;
9968;SDS011;5025;48.890;9.278;2024-01-15T06:15:09;8.73;;;5.97;;
9968;SDS011;5025;48.890;9.278;2024-01-15T06:17:34;8.97;;;6.27;;
9968;SDS011;5025;48.890;9.278;2024-01-15T06:20:00;8.87;;;6.30;;
9968;SDS011;5025;48.890;9.278;2024-01-15T06:22:25;8.47;;;5.40;;
9968;SDS011;5025;48.890;9.278;2024-01-15T06:24:50;7.80;;;5.80;;
9968;SDS011;5025;48.890;9.278;2024-01-15T06:27:16;8.40;;;6.00;;
9968;SDS011;5025;48.890;9.278;2024-01-15T06:29:44;7.17;;;5.77;;
9968;SDS011;5025;48.890;9.278;2024-01-15T06:32:12;9.20;;;5.93;;
9968;SDS011;5025;48.890;9.278;2024-01-15T06:34:37;9.20;;;5.60;;
9968;SDS011;5025;48.890;9.278;2024-01-15T06:37:02;8.23;;;6.13;;
9968;SDS011;5025;48.890;9.278;2024-01-15T06:39:27;6.77;;;5.40;;
9968;SDS011;5025;48.890;9.278;2024-01-15T06:41:53;9.23;;;5.63;;
9968;SDS011;5025;48.890;9.278;2024-01-15T06:44:18;8.23;;;5.83;;
9968;SDS011;5025;48.890;9.278;2024-01-15T06:46:46;8.67;;;5.97;;
9968;SDS011;5025;48.890;9.278;2024-01-15T06:49:11;8.77;;;6.53;;
9968;SDS011;5025;48.890;9.278;2024-01-15T06:51:37;9.20;;;6.40;;
9968;SDS011;5025;48.890;9.278;2024-01-15T06:54:03;9.40;;;5.93;;
9968;SDS011;5025;48.890;9.278;2024-01-15T06:56:28;9.23;;;6.53;;
9968;SDS011;5025;48.890;9.278;2024-01-15T06:58:53;8.47;;;6.37;;
9968;SDS011;5025;48.890;9.278;2024-01-15T07:01:19;8.10;;;5.90;;
9968;SDS011;5025;48.890;9.278;2024-01-15T07:03:44;9.73;;;6.47;;
9968;SDS011;5025;48.890;9.278;2024-01-15T07:06:10;8.13;;;5.90;;
9968;SDS011;5025;48.890;9.278;2024-01-15T07:08:36;7.53;;;5.60;;
9968;SDS011;5025;48.890;9.278;2024-01-15T07:11:03;9.90;;;6.60;;
9968;SDS011;5025;48.890;9.278;2024-01-15T07:13:29;11.80;;;7.60;;
9968;SDS011;5025;48.890;9.278;2024-01-15T07:15:54;11.27;;;7.53;;
9968;SDS011;5025;48.890;9.278;2024-01-15T07:18:19;9.43;;;6.93;;
9968;SDS011;5025;48.890;9.278;2024-01-15T07:20:44;10.67;;;7.30;;
9968;SDS011;5025;48.890;9.278;2024-01-15T07:23:10;8.77;;;6.67;;
9968;SDS011;5025;48.890;9.278;2024-01-15T07:25:35;8.63;;;6.60;;
9968;SDS011;5025;48.890;9.278;2024-01-15T07:28:00;8.43;;;6.00;;
9968;SDS011;5025;48.890;9.278;2024-01-15T07:30:26;9.63;;;6.50;;
9968;SDS011;5025;48.890;9.278;2024-01-15T07:32:51;9.93;;;7.13;;
9968;SDS011;5025;48.890;9.278;2024-01-15T07:35:17;7.90;;;6.70;;
9968;SDS011;5025;48.890;9.278;2024-01-15T07:37:43;12.07;;;7.87;;
9968;SDS011;5025;48.890;9.278;2024-01-15T07:40:09;12.97;;;8.40;;
9968;SDS011;5025;48.890;9.278;2024-01-15T07:42:35;9.73;;;6.80;;
9968;SDS011;5025;48.890;9.278;2024-01-15T07:45:01;9.93;;;6.40;;
9968;SDS011;5025;48.890;9.278;2024-01-15T07:47:26;9.10;;;6.17;;
9968;SDS011;5025;48.890;9.278;2024-01-15T07:49:52;9.20;;;6.57;;
9968;SDS011;5025;48.890;9.278;2024-01-15T07:52:18;9.00;;;6.67;;
9968;SDS011;5025;48.890;9.278;2024-01-15T07:54:43;10.10;;;6.63;;
9968;SDS011;5025;48.890;9.278;2024-01-15T07:57:09;10.20;;;6.67;;
9968;SDS011;5025;48.890;9.278;2024-01-15T07:59:34;8.03;;;6.17;;
9968;SDS011;5025;48.890;9.278;2024-01-15T08:02:00;10.00;;;6.60;;
9968;SDS011;5025;48.890;9.278;2024-01-15T08:04:25;7.37;;;6.00;;
9968;SDS011;5025;48.890;9.278;2024-01-15T08:06:51;10.17;;;7.53;;
9968;SDS011;5025;48.890;9.278;2024-01-15T08:09:16;8.93;;;6.70;;
9968;SDS011;5025;48.890;9.278;2024-01-15T08:11:42;8.20;;;6.53;;
9968;SDS011;5025;48.890;9.278;2024-01-15T08:14:08;8.67;;;6.50;;
9968;SDS011;5025;48.890;9.278;2024-01-15T08:16:34;10.37;;;6.83;;
9968;SDS011;5025;48.890;9.278;2024-01-15T08:18:59;9.47;;;6.87;;
9968;SDS011;5025;48.890;9.278;2024-01-15T08:21:25;9.20;;;6.83;;
9968;SDS011;5025;48.890;9.278;2024-01-15T08:23:50;11.30;;;6.77;;
9968;SDS011;5025;48.890;9.278;2024-01-15T08:26:15;10.37;;;7.20;;
9968;SDS011;5025;48.890;9.278;2024-01-15T08:28:41;9.23;;;6.57;;
9968;SDS011;5025;48.890;9.278;2024-01-15T08:31:06;9.37;;;6.67;;
9968;SDS011;5025;48.890;9.278;2024-01-15T08:33:31;9.30;;;6.57;;
9968;SDS011;5025;48.890;9.278;2024-01-15T08:35:56;9.47;;;7.00;;
9968;SDS011;5025;48.890;9.278;2024-01-15T08:38:22;8.93;;;6.67;;
9968;SDS011;5025;48.890;9.278;2024-01-15T08:40:48;9.93;;;6.37;;
9968;SDS011;5025;48.890;9.278;2024-01-15T08:43:14;9.30;;;6.90;;
9968;SDS011;5025;48.890;9.278;2024-01-15T08:45:39;8.27;;;6.60;;
9968;SDS011;5025;48.890;9.278;2024-01-15T08:48:04;9.13;;;6.63;;
9968;SDS011;5025;48.890;9.278;2024-01-15T08:50:30;9.27;;;6.50;;
9968;SDS011;5025;48.890;9.278;2024-01-15T08:52:57;7.47;;;5.90;;
9968;SDS011;5025;48.890;9.278;2024-01-15T08:55:22;8.33;;;6.00;;
9968;SDS011;5025;48.890;9.278;2024-01-15T08:57:48;10.47;;;6.47;;
9968;SDS011;5025;48.890;9.278;2024-01-15T09:00:13;6.97;;;5.30;;
9968;SDS011;5025;48.890;9.278;2024-01-15T09:02:39;9.67;;;5.20;;
9968;SDS011;5025;48.890;9.278;2024-01-15T09:05:04;7.17;;;5.17;;
9968;SDS011;5025;48.890;9.278;2024-01-15T09:07:30;7.67;;;5.33;;
9968;SDS011;5025;48.890;9.278;2024-01-15T09:09:55;7.50;;;5.83;;
9968;SDS011;5025;48.890;9.278;2024-01-15T09:12:20;7.50;;;4.90;;
9968;SDS011;5025;48.890;9.278;2024-01-15T09:14:47;8.97;;;6.10;;
9968;SDS011;5025;48.890;9.278;2024-01-15T09:17:12;8.17;;;6.00;;
9968;SDS011;5025;48.890;9.278;2024-01-15T09:19:37;10.17;;;6.17;;
9968;SDS011;5025;48.890;9.278;2024-01-15T09:22:06;11.70;;;6.20;;
9968;SDS011;5025;48.890;9.278;2024-01-15T09:24:32;9.20;;;5.77;;
9968;SDS011;5025;48.890;9.278;2024-01-15T09:26:57;16.60;;;9.03;;
9968;SDS011;5025;48.890;9.278;2024-01-15T09:29:22;10.97;;;6.33;;
9968;SDS011;5025;48.890;9.278;2024-01-15T09:31:48;9.50;;;6.13;;
9968;SDS011;5025;48.890;9.278;2024-01-15T09:34:15;6.50;;;4.90;;
9968;SDS011;5025;48.890;9.278;2024-01-15T09:36:40;10.53;;;6.27;;
9968;SDS011;5025;48.890;9.278;2024-01-15T09:39:07;7.33;;;4.67;;
9968;SDS011;5025;48.890;9.278;2024-01-15T09:41:34;6.00;;;4.20;;
9968;SDS011;5025;48.890;9.278;2024-01-15T09:44:01;4.80;;;4.20;;
9968;SDS011;5025;48.890;9.278;2024-01-15T09:46:27;6.37;;;4.20;;
9968;SDS011;5025;48.890;9.278;2024-01-15T09:48:53;9.03;;;4.23;;
9968;SDS011;5025;48.890;9.278;2024-01-15T09:51:18;5.27;;;3.90;;
9968;SDS011;5025;48.890;9.278;2024-01-15T09:53:44;7.93;;;4.27;;
9968;SDS011;5025;48.890;9.278;2024-01-15T09:56:11;9.10;;;5.30;;
9968;SDS011;5025;48.890;9.278;2024-01-15T09:58:37;5.40;;;4.10;;
9968;SDS011;5025;48.890;9.278;2024-01-15T10:01:03;6.53;;;4.63;;
9968;SDS011;5025;48.890;9.278;2024-01-15T10:03:29;6.83;;;4.80;;
9968;SDS011;5025;48.890;9.278;2024-01-15T10:05:54;7.17;;;4.50;;
9968;SDS011;5025;48.890;9.278;2024-01-15T10:08:23;7.97;;;5.13;;
9968;SDS011;5025;48.890;9.278;2024-01-15T10:10:49;6.47;;;4.73;;
9968;SDS011;5025;48.890;9.278;2024-01-15T10:13:15;6.20;;;5.10;;
9968;SDS011;5025;48.890;9.278;2024-01-15T10:15:40;5.57;;;4.40;;
9968;SDS011;5025;48.890;9.278;2024-01-15T10:18:07;7.07;;;4.80;;
9968;SDS011;5025;48.890;9.278;2024-01-15T10:20:33;6.93;;;4.83;;
9968;SDS011;5025;48.890;9.278;2024-01-15T10:22:58;7.83;;;4.90;;
9968;SDS011;5025;48.890;9.278;2024-01-15T10:25:23;7.10;;;4.17;;
9968;SDS011;5025;48.890;9.278;2024-01-15T10:28:03;6.13;;;3.80;;
9968;SDS011;5025;48.890;9.278;2024-01-15T10:30:29;5.40;;;3.73;;
9968;SDS011;5025;48.890;9.278;2024-01-15T10:33:01;6.50;;;4.40;;
9968;SDS011;5025;48.890;9.278;2024-01-15T10:38:00;6.00;;;4.07;;
9968;SDS011;5025;48.890;9.278;2024-01-15T10:40:25;7.17;;;4.27;;
9968;SDS011;5025;48.890;9.278;2024-01-15T10:42:51;7.87;;;4.77;;
9968;SDS011;5025;48.890;9.278;2024-01-15T10:45:17;6.60;;;5.07;;
9968;SDS011;5025;48.890;9.278;2024-01-15T10:47:42;7.23;;;5.23;;
9968;SDS011;5025;48.890;9.278;2024-01-15T10:50:08;6.13;;;4.23;;
9968;SDS011;5025;48.890;9.278;2024-01-15T10:52:37;6.33;;;4.30;;
9968;SDS011;5025;48.890;9.278;2024-01-15T10:55:05;5.27;;;3.90;;
9968;SDS011;5025;48.890;9.278;2024-01-15T10:57:33;6.40;;;4.30;;
9968;SDS011;5025;48.890;9.278;2024-01-15T10:59:59;4.80;;;3.87;;
9968;SDS011;5025;48.890;9.278;2024-01-15T11:02:25;5.17;;;3.90;;
9968;SDS011;5025;48.890;9.278;2024-01-15T11:04:51;5.77;;;4.23;;
9968;SDS011;5025;48.890;9.278;2024-01-15T11:07:16;5.57;;;4.07;;
9968;SDS011;5025;48.890;9.278;2024-01-15T11:09:43;5.70;;;4.07;;
9968;SDS011;5025;48.890;9.278;2024-01-15T11:12:12;6.33;;;4.53;;
9968;SDS011;5025;48.890;9.278;2024-01-15T11:14:39;4.80;;;4.00;;
9968;SDS011;5025;48.890;9.278;2024-01-15T11:17:05;6.60;;;4.43;;
9968;SDS011;5025;48.890;9.278;2024-01-15T11:19:44;7.07;;;4.93;;
9968;SDS011;5025;48.890;9.278;2024-01-15T11:25:02;4.37;;;3.97;;
9968;SDS011;5025;48.890;9.278;2024-01-15T11:30:08;6.57;;;4.30;;
9968;SDS011;5025;48.890;9.278;2024-01-15T11:32:36;8.33;;;5.03;;
9968;SDS011;5025;48.890;9.278;2024-01-15T11:35:01;6.43;;;4.73;;
9968;SDS011;5025;48.890;9.278;2024-01-15T11:37:28;5.93;;;4.53;;
9968;SDS011;5025;48.890;9.278;2024-01-15T11:40:14;7.90;;;5.80;;
9968;SDS011;5025;48.890;9.278;2024-01-15T11:42:42;6.70;;;5.20;;
9968;SDS011;5025;48.890;9.278;2024-01-15T11:45:09;6.50;;;4.87;;
9968;SDS011;5025;48.890;9.278;2024-01-15T11:47:47;5.33;;;4.63;;
9968;SDS011;5025;48.890;9.278;2024-01-15T11:50:42;6.87;;;5.70;;
9968;SDS011;5025;48.890;9.278;2024-01-15T11:55:52;6.37;;;5.30;;
9968;SDS011;5025;48.890;9.278;2024-01-15T11:58:23;5.73;;;5.00;;
9968;SDS011;5025;48.890;9.278;2024-01-15T12:00:50;6.20;;;4.87;;
9968;SDS011;5025;48.890;9.278;2024-01-15T12:03:17;6.60;;;5.27;;
9968;SDS011;5025;48.890;9.278;2024-01-15T12:05:45;8.07;;;5.23;;
9968;SDS011;5025;48.890;9.278;2024-01-15T12:08:11;5.60;;;5.10;;
9968;SDS011;5025;48.890;9.278;2024-01-15T12:10:39;7.50;;;5.37;;
9968;SDS011;5025;48.890;9.278;2024-01-15T12:13:12;6.23;;;5.30;;
9968;SDS011;5025;48.890;9.278;2024-01-15T12:15:38;7.80;;;5.07;;
9968;SDS011;5025;48.890;9.278;2024-01-15T12:18:08;7.13;;;5.30;;
9968;SDS011;5025;48.890;9.278;2024-01-15T12:20:34;7.83;;;5.50;;
9968;SDS011;5025;48.890;9.278;2024-01-15T12:23:00;6.20;;;5.37;;
9968;SDS011;5025;48.890;9.278;2024-01-15T12:25:28;6.70;;;5.20;;
9968;SDS011;5025;48.890;9.278;2024-01-15T12:27:54;7.07;;;5.13;;
9968;SDS011;5025;48.890;9.278;2024-01-15T12:30:20;8.67;;;5.70;;
9968;SDS011;5025;48.890;9.278;2024-01-15T12:32:46;7.30;;;5.70;;
9968;SDS011;5025;48.890;9.278;2024-01-15T12:35:12;7.77;;;5.63;;
9968;SDS011;5025;48.890;9.278;2024-01-15T12:37:39;7.43;;;5.60;;
9968;SDS011;5025;48.890;9.278;2024-01-15T12:40:05;6.20;;;5.40;;
9968;SDS011;5025;48.890;9.278;2024-01-15T12:42:32;7.03;;;5.20;;
9968;SDS011;5025;48.890;9.278;2024-01-15T12:44:58;6.07;;;4.97;;
9968;SDS011;5025;48.890;9.278;2024-01-15T12:47:23;7.63;;;5.77;;
9968;SDS011;5025;48.890;9.278;2024-01-15T12:49:51;8.30;;;5.60;;
9968;SDS011;5025;48.890;9.278;2024-01-15T12:52:18;7.27;;;5.20;;
9968;SDS011;5025;48.890;9.278;2024-01-15T12:54:45;7.00;;;5.43;;
9968;SDS011;5025;48.890;9.278;2024-01-15T12:57:10;7.23;;;5.00;;
9968;SDS011;5025;48.890;9.278;2024-01-15T12:59:35;7.20;;;5.20;;
9968;SDS011;5025;48.890;9.278;2024-01-15T13:02:00;7.07;;;4.93;;
9968;SDS011;5025;48.890;9.278;2024-01-15T13:04:26;7.07;;;4.33;;
9968;SDS011;5025;48.890;9.278;2024-01-15T13:06:51;5.43;;;4.87;;
9968;SDS011;5025;48.890;9.278;2024-01-15T13:09:18;6.37;;;5.23;;
9968;SDS011;5025;48.890;9.278;2024-01-15T13:11:44;5.33;;;4.80;;
9968;SDS011;5025;48.890;9.278;2024-01-15T13:14:10;7.30;;;5.30;;
9968;SDS011;5025;48.890;9.278;2024-01-15T13:16:35;6.23;;;4.67;;
9968;SDS011;5025;48.890;9.278;2024-01-15T13:19:00;5.87;;;4.43;;
9968;SDS011;5025;48.890;9.278;2024-01-15T13:21:26;5.50;;;4.60;;
9968;SDS011;5025;48.890;9.278;2024-01-15T13:23:51;5.17;;;4.67;;
9968;SDS011;5025;48.890;9.278;2024-01-15T13:26:16;8.23;;;5.00;;
9968;SDS011;5025;48.890;9.278;2024-01-15T13:28:43;5.10;;;4.50;;
9968;SDS011;5025;48.890;9.278;2024-01-15T13:31:08;7.97;;;4.70;;
9968;SDS011;5025;48.890;9.278;2024-01-15T13:33:34;6.67;;;4.90;;
9968;SDS011;5025;48.890;9.278;2024-01-15T13:35:59;7.13;;;5.33;;
9968;SDS011;5025;48.890;9.278;2024-01-15T13:38:24;8.17;;;5.33;;
9968;SDS011;5025;48.890;9.278;2024-01-15T13:40:50;6.07;;;4.30;;
9968;SDS011;5025;48.890;9.278;2024-01-15T13:43:15;4.43;;;4.03;;
9968;SDS011;5025;48.890;9.278;2024-01-15T13:45:41;6.57;;;4.57;;
9968;SDS011;5025;48.890;9.278;2024-01-15T13:48:06;6.07;;;4.77;;
9968;SDS011;5025;48.890;9.278;2024-01-15T13:50:33;6.80;;;5.53;;
9968;SDS011;5025;48.890;9.278;2024-01-15T13:53:02;7.47;;;5.23;;
9968;SDS011;5025;48.890;9.278;2024-01-15T13:55:28;6.10;;;4.63;;
9968;SDS011;5025;48.890;9.278;2024-01-15T13:57:54;6.77;;;5.30;;
9968;SDS011;5025;48.890;9.278;2024-01-15T14:00:20;6.13;;;5.30;;
9968;SDS011;5025;48.890;9.278;2024-01-15T14:02:46;6.37;;;5.50;;
9968;SDS011;5025;48.890;9.278;2024-01-15T14:05:12;6.87;;;5.70;;
9968;SDS011;5025;48.890;9.278;2024-01-15T14:07:38;5.97;;;5.23;;
9968;SDS011;5025;48.890;9.278;2024-01-15T14:10:04;7.87;;;5.93;;
9968;SDS011;5025;48.890;9.278;2024-01-15T14:12:30;6.10;;;5.47;;
9968;SDS011;5025;48.890;9.278;2024-01-15T14:14:56;6.57;;;5.27;;
9968;SDS011;5025;48.890;9.278;2024-01-15T14:17:22;7.73;;;5.20;;
9968;SDS011;5025;48.890;9.278;2024-01-15T14:19:47;6.80;;;5.73;;
9968;SDS011;5025;48.890;9.278;2024-01-15T14:22:12;6.30;;;5.50;;
9968;SDS011;5025;48.890;9.278;2024-01-15T14:24:37;7.43;;;5.87;;
9968;SDS011;5025;48.890;9.278;2024-01-15T14:27:03;6.07;;;5.47;;
9968;SDS011;5025;48.890;9.278;2024-01-15T14:29:30;7.97;;;6.63;;
9968;SDS011;5025;48.890;9.278;2024-01-15T14:31:55;7.30;;;5.60;;
9968;SDS011;5025;48.890;9.278;2024-01-15T14:34:20;7.27;;;6.37;;
9968;SDS011;5025;48.890;9.278;2024-01-15T14:36:48;7.77;;;6.10;;
9968;SDS011;5025;48.890;9.278;2024-01-15T14:39:14;7.60;;;6.53;;
9968;SDS011;5025;48.890;9.278;2024-01-15T14:41:39;6.90;;;6.03;;
9968;SDS011;5025;48.890;9.278;2024-01-15T14:44:05;7.97;;;6.07;;
9968;SDS011;5025;48.890;9.278;2024-01-15T14:46:30;8.53;;;6.53;;
9968;SDS011;5025;48.890;9.278;2024-01-15T14:48:55;7.70;;;6.87;;
9968;SDS011;5025;48.890;9.278;2024-01-15T14:51:20;8.07;;;6.33;;
9968;SDS011;5025;48.890;9.278;2024-01-15T14:53:46;7.90;;;6.93;;
9968;SDS011;5025;48.890;9.278;2024-01-15T14:56:11;9.27;;;7.17;;
9968;SDS011;5025;48.890;9.278;2024-01-15T14:58:36;9.60;;;7.10;;
9968;SDS011;5025;48.890;9.278;2024-01-15T15:01:01;9.57;;;7.33;;
9968;SDS011;5025;48.890;9.278;2024-01-15T15:03:28;8.13;;;6.77;;
9968;SDS011;5025;48.890;9.278;2024-01-15T15:05:54;9.20;;;7.50;;
9968;SDS011;5025;48.890;9.278;2024-01-15T15:08:19;9.43;;;6.63;;
9968;SDS011;5025;48.890;9.278;2024-01-15T15:10:44;8.17;;;7.10;;